createdAt,value
2023-01-06T00:00:50.599Z,1.3
2023-01-06T00:05:49.701Z,3.4
2023-01-06T00:10:48.899Z,1.4
2023-01-06T00:15:48.234Z,5
2023-01-06T00:20:47.414Z,0.8
2023-01-06T00:25:46.630Z,1.6
2023-01-06T00:30:45.924Z,2.6
2023-01-06T00:35:45.083Z,1.4
2023-01-06T00:40:44.362Z,1.3
2023-01-06T00:45:43.557Z,2.3
2023-01-06T00:50:42.789Z,2.4
2023-01-06T00:55:42.097Z,1.6
2023-01-06T01:00:41.260Z,1.8
2023-01-06T01:05:40.511Z,2.1
2023-01-06T01:10:39.749Z,1.7
2023-01-06T01:15:39.077Z,1
2023-01-06T01:20:38.214Z,0.5
2023-01-06T01:25:37.438Z,0.8
2023-01-06T01:30:36.669Z,3.2
2023-01-06T01:35:35.946Z,1.2
2023-01-06T01:40:35.205Z,0.6
2023-01-06T01:45:34.405Z,1.3
2023-01-06T01:50:33.617Z,1.2
2023-01-06T01:55:32.871Z,1.2
2023-01-06T02:00:32.085Z,2.4
2023-01-06T02:05:31.310Z,0.5
2023-01-06T02:10:30.489Z,2.7
2023-01-06T02:15:29.731Z,1.4
2023-01-06T02:20:28.966Z,1.1
2023-01-06T02:25:28.186Z,1
2023-01-06T02:30:27.416Z,0.9
2023-01-06T02:35:26.656Z,1
2023-01-06T02:40:25.872Z,0.9
2023-01-06T02:45:25.195Z,1
2023-01-06T02:50:24.327Z,1.4
2023-01-06T02:55:23.505Z,0.8
2023-01-06T03:00:22.786Z,2
2023-01-06T03:05:21.971Z,4.1
2023-01-06T03:10:21.237Z,0.8
2023-01-06T03:15:20.475Z,0.7
2023-01-06T03:20:19.702Z,0.7
2023-01-06T03:25:19.036Z,1.5
2023-01-06T03:30:18.208Z,1.3
2023-01-06T03:35:17.419Z,1.5
2023-01-06T03:40:16.667Z,1
2023-01-06T03:45:15.934Z,0.6
2023-01-06T03:50:15.171Z,0.6
2023-01-06T03:55:14.407Z,0.5
2023-01-06T04:00:13.683Z,0.8
2023-01-06T04:05:12.924Z,4.3
2023-01-06T04:10:12.182Z,4.1
2023-01-06T04:15:11.401Z,1.3
2023-01-06T04:20:10.661Z,3
2023-01-06T04:25:09.924Z,1.1
2023-01-06T04:30:09.177Z,3.2
2023-01-06T04:35:08.445Z,1.3
2023-01-06T04:40:07.677Z,1.3
2023-01-06T04:45:06.836Z,0.5
2023-01-06T04:50:06.095Z,3.2
2023-01-06T04:55:05.358Z,1.1
2023-01-06T05:00:04.596Z,0.9
2023-01-06T05:05:03.833Z,1.1
2023-01-06T05:10:03.034Z,2.7
2023-01-06T05:15:02.327Z,1.3
2023-01-06T05:20:01.520Z,1.7
2023-01-06T05:25:00.763Z,0.6
2023-01-06T05:30:00.028Z,2.5
2023-01-06T05:34:59.289Z,1
2023-01-06T05:39:58.486Z,1.3
2023-01-06T05:44:57.731Z,1.3
2023-01-06T05:49:57.046Z,1
2023-01-06T05:54:56.241Z,2.7
2023-01-06T05:59:55.466Z,2.9
2023-01-06T06:04:54.714Z,3.7
2023-01-06T06:09:53.969Z,4.1
2023-01-06T06:14:53.169Z,5.4
2023-01-06T06:19:52.403Z,3.8
2023-01-06T06:24:51.596Z,7.6
2023-01-06T06:29:50.838Z,3
2023-01-06T06:34:50.051Z,2.4
2023-01-06T06:39:49.295Z,9.7
2023-01-06T06:44:50.141Z,6.6
2023-01-06T06:49:47.721Z,2.1
2023-01-06T06:54:46.901Z,22.4
2023-01-06T06:59:46.292Z,4.7
2023-01-06T07:04:45.401Z,6.1
2023-01-06T07:09:44.530Z,4.4
2023-01-06T07:14:43.750Z,22.8
2023-01-06T07:19:42.997Z,11.3
2023-01-06T07:24:42.180Z,21.7
2023-01-06T07:29:41.358Z,17.3
2023-01-06T07:34:40.546Z,6.9
2023-01-06T07:39:39.746Z,6.2
2023-01-06T07:44:38.945Z,5.8
2023-01-06T07:49:38.170Z,6.9
2023-01-06T07:54:37.387Z,14.6
2023-01-06T07:59:36.585Z,12.9
2023-01-06T08:04:35.804Z,12.5
2023-01-06T08:09:35.028Z,7.8
2023-01-06T08:14:34.232Z,7.3
2023-01-06T08:19:33.466Z,2.7
2023-01-06T08:24:32.801Z,9.7
2023-01-06T08:29:31.974Z,6.1
2023-01-06T08:34:31.161Z,4.3
2023-01-06T08:39:30.401Z,1.3
2023-01-06T08:44:29.704Z,3.6
2023-01-06T08:49:28.925Z,4
2023-01-06T08:54:28.176Z,3.4
2023-01-06T08:59:27.498Z,8.1
2023-01-06T09:04:26.762Z,12.3
2023-01-06T09:09:26.037Z,5
2023-01-06T09:14:25.292Z,13.7
2023-01-06T09:19:24.596Z,12.6
2023-01-06T09:24:23.820Z,14.3
2023-01-06T09:29:23.135Z,9.7
2023-01-06T09:34:22.391Z,10.7
2023-01-06T09:39:21.671Z,10.9
2023-01-06T09:44:22.072Z,7.1
2023-01-06T09:49:20.326Z,18.4
2023-01-06T09:54:19.590Z,9.5
2023-01-06T09:59:18.853Z,2.6
2023-01-06T10:04:18.256Z,3.1
2023-01-06T10:09:17.448Z,5.3
2023-01-06T10:14:16.745Z,6.7
2023-01-06T10:19:16.102Z,4.5
2023-01-06T10:24:15.448Z,3.3
2023-01-06T10:29:14.746Z,3
2023-01-06T10:34:14.109Z,6.9
2023-01-06T10:39:13.410Z,3.7
2023-01-06T10:44:12.741Z,11
2023-01-06T10:49:12.053Z,10.5
2023-01-06T10:54:11.434Z,5.8
2023-01-06T10:59:10.782Z,5.7
2023-01-06T11:04:10.124Z,7.8
2023-01-06T11:09:09.523Z,7.3
2023-01-06T11:14:08.793Z,4.5
2023-01-06T11:19:08.148Z,1.6
2023-01-06T11:24:07.460Z,3.4
2023-01-06T11:29:06.789Z,4.6
2023-01-06T11:34:06.145Z,2.9
2023-01-06T11:39:05.472Z,2.4
2023-01-06T11:44:04.807Z,4
2023-01-06T11:49:04.162Z,2.2
2023-01-06T11:54:03.499Z,5.6
2023-01-06T11:59:02.808Z,1.6
2023-01-06T12:04:02.185Z,2.8
2023-01-06T12:09:01.509Z,2.1
2023-01-06T12:14:16.231Z,4
2023-01-06T12:19:00.204Z,5.7
2023-01-06T12:23:59.510Z,2.8
2023-01-06T12:28:58.896Z,1.2
2023-01-06T12:33:58.190Z,3.2
2023-01-06T12:38:57.569Z,1.9
2023-01-06T12:43:56.890Z,4.4
2023-01-06T12:48:56.304Z,2.9
2023-01-06T12:53:56.297Z,2
2023-01-06T12:58:54.836Z,4
2023-01-06T13:03:54.222Z,2.8
2023-01-06T13:08:53.455Z,4.3
2023-01-06T13:13:52.755Z,6
2023-01-06T13:18:52.070Z,2.3
2023-01-06T13:23:51.366Z,3.7
2023-01-06T13:28:50.687Z,2
2023-01-06T13:33:49.988Z,2.3
2023-01-06T13:38:49.314Z,3.9
2023-01-06T13:43:48.695Z,4.7
2023-01-06T13:48:47.920Z,7.7
2023-01-06T13:53:47.214Z,4
2023-01-06T13:58:46.519Z,7.2
2023-01-06T14:03:45.806Z,4
2023-01-06T14:08:45.142Z,4.9
2023-01-06T14:13:44.505Z,6.4
2023-01-06T14:18:43.728Z,7.9
2023-01-06T14:23:43.024Z,7.6
2023-01-06T14:28:43.377Z,7.6
2023-01-06T14:33:41.713Z,6.8
2023-01-06T14:38:41.014Z,5.1
2023-01-06T14:43:40.361Z,6.1
2023-01-06T14:48:39.758Z,3.7
2023-01-06T14:53:39.051Z,6.3
2023-01-06T14:58:38.395Z,9.2
2023-01-06T15:03:37.725Z,23.9
2023-01-06T15:08:37.017Z,15.8
2023-01-06T15:13:36.369Z,28.5
2023-01-06T15:18:35.727Z,28.9
2023-01-06T15:23:35.065Z,35.9
2023-01-06T15:28:34.481Z,25
2023-01-06T15:33:33.792Z,31.7
2023-01-06T15:38:33.116Z,32.7
2023-01-06T15:43:32.501Z,30.7
2023-01-06T15:48:31.783Z,40.9
2023-01-06T15:53:31.160Z,58.8
2023-01-06T15:58:30.526Z,71.4
2023-01-06T16:03:29.768Z,72.3
2023-01-06T16:04:42.187Z,72.3
2023-01-06T16:08:29.153Z,70
2023-01-06T16:11:04.470Z,70
2023-01-06T16:13:28.416Z,85.6
2023-01-06T16:18:27.718Z,76.5
2023-01-06T16:23:27.042Z,65.7
2023-01-06T16:28:26.336Z,65.6
2023-01-06T16:32:29.830Z,65.6
2023-01-06T16:33:25.669Z,70.3
2023-01-06T16:36:17.082Z,70.3
2023-01-06T16:40:50.407Z,66.1
2023-01-06T16:43:24.267Z,80.8
2023-01-06T16:48:23.554Z,72.4
2023-01-06T16:53:22.860Z,62.2
2023-01-06T16:58:22.129Z,77.7
2023-01-06T17:03:21.362Z,78.6
2023-01-06T17:08:20.658Z,115.9
2023-01-06T17:13:19.888Z,124.9
2023-01-06T17:18:19.145Z,121.5
2023-01-06T17:23:18.364Z,105.1
2023-01-06T17:28:17.628Z,93.7
2023-01-06T17:33:16.916Z,80.1
2023-01-06T17:38:16.072Z,74.5
2023-01-06T17:43:15.321Z,106.3
2023-01-06T17:48:16.234Z,116.8
2023-01-06T17:49:05.853Z,116.8
2023-01-06T17:51:38.281Z,116.8
2023-01-06T17:53:13.726Z,101.3
2023-01-06T17:58:13.030Z,85.4
2023-01-06T18:03:12.269Z,80.7
2023-01-06T18:08:11.311Z,92.7
2023-01-06T18:13:10.492Z,92.3
2023-01-06T18:18:09.740Z,88.9
2023-01-06T18:23:08.888Z,75.6
2023-01-06T18:28:13.682Z,73.2
2023-01-06T18:32:22.087Z,73.2
2023-01-06T18:33:07.242Z,88.3
2023-01-06T18:33:26.581Z,88.3
2023-01-06T18:38:06.395Z,69.7
2023-01-06T18:43:06.806Z,76.2
2023-01-06T18:45:22.013Z,76.2
2023-01-06T18:47:26.074Z,76.2
2023-01-06T18:48:04.741Z,74.5
2023-01-06T18:53:11.139Z,83
2023-01-06T18:56:55.453Z,83
2023-01-06T18:58:03.058Z,80.7
2023-01-06T19:03:02.193Z,76.7
2023-01-06T19:08:01.359Z,89.6
2023-01-06T19:10:57.064Z,89.6
2023-01-06T19:13:00.462Z,94.2
2023-01-06T19:17:59.646Z,72.7
2023-01-06T19:22:58.751Z,83.2
2023-01-06T19:27:57.868Z,91.4
2023-01-06T19:29:49.686Z,91.4
2023-01-06T19:33:27.954Z,127.6
2023-01-06T19:35:04.022Z,127.6
2023-01-06T19:37:56.128Z,99.4
2023-01-06T19:42:55.274Z,97.3
2023-01-06T19:47:54.392Z,98.3
2023-01-06T19:52:53.552Z,91.8
2023-01-06T19:55:01.368Z,91.8
2023-01-06T19:57:52.676Z,91.1
2023-01-06T20:02:51.844Z,112.3
2023-01-06T20:07:50.850Z,102.6
2023-01-06T20:12:49.970Z,97.5
2023-01-06T20:17:49.024Z,106
2023-01-06T20:22:48.226Z,96
2023-01-06T20:27:47.277Z,91.9
2023-01-06T20:32:46.380Z,113
2023-01-06T20:37:45.437Z,108.4
2023-01-06T20:40:39.978Z,108.4
2023-01-06T20:42:44.698Z,112.7
2023-01-06T20:42:54.490Z,112.7
2023-01-06T20:44:54.078Z,112.7
2023-01-06T20:46:42.735Z,112.7
2023-01-06T20:47:44.625Z,110
2023-01-06T20:52:42.853Z,102.6
2023-01-06T20:57:41.364Z,102.6
2023-01-06T20:57:41.788Z,113.7
2023-01-06T21:02:41.047Z,105.7
2023-01-06T21:05:02.633Z,105.7
2023-01-06T21:07:39.974Z,107
2023-01-06T21:12:39.188Z,118.6
2023-01-06T21:17:38.242Z,124.1
2023-01-06T21:22:37.317Z,120.8
2023-01-06T21:27:36.440Z,131.5
2023-01-06T21:32:35.525Z,115.5
2023-01-06T21:37:34.648Z,97.1
2023-01-06T21:42:33.695Z,95.1
2023-01-06T21:47:32.812Z,102.9
2023-01-06T21:52:31.961Z,104.5
2023-01-06T21:57:30.973Z,92.4
2023-01-06T22:02:30.205Z,94.5
2023-01-06T22:06:08.238Z,94.5
2023-01-06T22:07:29.202Z,102.8
2023-01-06T22:10:30.053Z,102.8
2023-01-06T22:12:28.268Z,93
2023-01-06T22:14:46.205Z,93
2023-01-06T22:17:27.347Z,99.8
2023-01-06T22:22:26.396Z,98.4
2023-01-06T22:27:25.520Z,100
2023-01-06T22:32:24.615Z,103.8
2023-01-06T22:37:23.676Z,103.6
2023-01-06T22:38:41.991Z,103.6
2023-01-06T22:42:22.973Z,103.2
2023-01-06T22:47:21.810Z,118.3
2023-01-06T22:48:51.978Z,118.3
2023-01-06T22:52:20.912Z,98.5
2023-01-06T22:54:40.454Z,98.5
2023-01-06T22:57:19.943Z,103.4
2023-01-06T23:02:19.344Z,109.7
2023-01-06T23:04:04.282Z,109.7
2023-01-06T23:05:31.737Z,109.7
2023-01-06T23:07:18.132Z,109
2023-01-06T23:12:32.870Z,94.4
2023-01-06T23:17:16.469Z,110.5
2023-01-06T23:17:58.240Z,110.5
2023-01-06T23:21:55.352Z,110.5
2023-01-06T23:22:15.384Z,98.2
2023-01-06T23:23:21.370Z,98.2
2023-01-06T23:23:51.660Z,98.2
2023-01-06T23:25:25.586Z,98.2
2023-01-06T23:27:14.420Z,97.8
2023-01-06T23:28:14.365Z,97.8
2023-01-06T23:35:36.072Z,93.4
2023-01-06T23:36:49.966Z,93.4
2023-01-06T23:37:12.588Z,79.4
2023-01-06T23:39:07.084Z,79.4
2023-01-06T23:42:11.667Z,90.7
2023-01-06T23:47:10.727Z,67.7
2023-01-06T23:54:39.937Z,68.4
2023-01-06T23:59:55.062Z,67.9
